sensor_id;sensor_type;location;lat;lon;timestamp;P1;durP1;ratioP1;P2;durP2;ratioP2
80584;SDS011;70137;56.482;9.154;2023-06-14T00:02:11;8.73;;;2.67;;
80584;SDS011;70137;56.482;9.154;2023-06-14T00:05:04;4.75;;;2.38;;
80584;SDS011;70137;56.482;9.154;2023-06-14T00:08:11;6.32;;;2.47;;
80584;SDS011;70137;56.482;9.154;2023-06-14T00:11:07;7.35;;;2.67;;
80584;SDS011;70137;56.482;9.154;2023-06-14T00:17:18;4.75;;;2.65;;
80584;SDS011;70137;56.482;9.154;2023-06-14T00:20:05;5.38;;;2.60;;
80584;SDS011;70137;56.482;9.154;2023-06-14T00:22:31;4.50;;;2.80;;
80584;SDS011;70137;56.482;9.154;2023-06-14T00:28:02;6.57;;;2.63;;
80584;SDS011;70137;56.482;9.154;2023-06-14T00:31:06;5.13;;;2.97;;
80584;SDS011;70137;56.482;9.154;2023-06-14T00:33:59;3.92;;;2.63;;
80584;SDS011;70137;56.482;9.154;2023-06-14T00:36:40;6.80;;;2.53;;
80584;SDS011;70137;56.482;9.154;2023-06-14T00:39:15;4.88;;;2.88;;
80584;SDS011;70137;56.482;9.154;2023-06-14T00:41:44;4.18;;;2.58;;
80584;SDS011;70137;56.482;9.154;2023-06-14T00:44:19;5.13;;;2.78;;
80584;SDS011;70137;56.482;9.154;2023-06-14T00:47:27;5.95;;;2.92;;
80584;SDS011;70137;56.482;9.154;2023-06-14T00:50:06;5.38;;;2.88;;
80584;SDS011;70137;56.482;9.154;2023-06-14T00:52:37;7.65;;;2.60;;
80584;SDS011;70137;56.482;9.154;2023-06-14T00:55:23;6.70;;;3.45;;
80584;SDS011;70137;56.482;9.154;2023-06-14T00:58:13;4.72;;;2.60;;
80584;SDS011;70137;56.482;9.154;2023-06-14T01:00:54;7.63;;;2.85;;
80584;SDS011;70137;56.482;9.154;2023-06-14T01:09:42;4.10;;;2.40;;
80584;SDS011;70137;56.482;9.154;2023-06-14T01:12:13;6.00;;;2.60;;
80584;SDS011;70137;56.482;9.154;2023-06-14T01:14:46;6.07;;;3.05;;
80584;SDS011;70137;56.482;9.154;2023-06-14T01:17:13;5.15;;;2.80;;
80584;SDS011;70137;56.482;9.154;2023-06-14T01:20:12;7.30;;;2.97;;
80584;SDS011;70137;56.482;9.154;2023-06-14T01:22:57;5.75;;;3.33;;
80584;SDS011;70137;56.482;9.154;2023-06-14T01:25:23;5.93;;;3.00;;
80584;SDS011;70137;56.482;9.154;2023-06-14T01:38:26;4.90;;;3.08;;
80584;SDS011;70137;56.482;9.154;2023-06-14T01:47:25;3.83;;;2.85;;
80584;SDS011;70137;56.482;9.154;2023-06-14T01:50:36;6.47;;;2.95;;
80584;SDS011;70137;56.482;9.154;2023-06-14T01:53:24;5.72;;;3.08;;
80584;SDS011;70137;56.482;9.154;2023-06-14T01:56:18;7.88;;;3.03;;
80584;SDS011;70137;56.482;9.154;2023-06-14T02:01:57;5.13;;;3.15;;
80584;SDS011;70137;56.482;9.154;2023-06-14T02:04:23;3.95;;;2.80;;
80584;SDS011;70137;56.482;9.154;2023-06-14T02:06:48;7.07;;;3.05;;
80584;SDS011;70137;56.482;9.154;2023-06-14T02:09:13;5.85;;;2.90;;
80584;SDS011;70137;56.482;9.154;2023-06-14T02:11:39;5.53;;;2.97;;
80584;SDS011;70137;56.482;9.154;2023-06-14T02:14:04;4.75;;;3.20;;
80584;SDS011;70137;56.482;9.154;2023-06-14T02:16:31;7.38;;;3.00;;
80584;SDS011;70137;56.482;9.154;2023-06-14T02:18:57;5.80;;;2.85;;
80584;SDS011;70137;56.482;9.154;2023-06-14T02:21:22;4.45;;;3.40;;
80584;SDS011;70137;56.482;9.154;2023-06-14T02:23:48;5.97;;;3.17;;
80584;SDS011;70137;56.482;9.154;2023-06-14T02:26:13;5.47;;;2.90;;
80584;SDS011;70137;56.482;9.154;2023-06-14T02:28:38;6.60;;;3.15;;
80584;SDS011;70137;56.482;9.154;2023-06-14T02:31:04;5.68;;;3.05;;
80584;SDS011;70137;56.482;9.154;2023-06-14T02:33:31;3.63;;;2.70;;
80584;SDS011;70137;56.482;9.154;2023-06-14T02:35:56;6.18;;;2.75;;
80584;SDS011;70137;56.482;9.154;2023-06-14T02:38:22;5.82;;;3.20;;
80584;SDS011;70137;56.482;9.154;2023-06-14T02:40:47;5.32;;;3.05;;
80584;SDS011;70137;56.482;9.154;2023-06-14T02:43:12;4.90;;;3.25;;
80584;SDS011;70137;56.482;9.154;2023-06-14T02:45:38;4.00;;;3.13;;
80584;SDS011;70137;56.482;9.154;2023-06-14T02:48:03;8.25;;;3.40;;
80584;SDS011;70137;56.482;9.154;2023-06-14T02:50:29;5.63;;;3.20;;
80584;SDS011;70137;56.482;9.154;2023-06-14T02:52:55;5.10;;;3.38;;
80584;SDS011;70137;56.482;9.154;2023-06-14T02:55:21;5.90;;;3.60;;
80584;SDS011;70137;56.482;9.154;2023-06-14T02:57:47;5.63;;;3.20;;
80584;SDS011;70137;56.482;9.154;2023-06-14T03:00:13;6.72;;;2.97;;
80584;SDS011;70137;56.482;9.154;2023-06-14T03:02:39;6.60;;;3.45;;
80584;SDS011;70137;56.482;9.154;2023-06-14T03:05:04;6.00;;;3.58;;
80584;SDS011;70137;56.482;9.154;2023-06-14T03:07:32;6.25;;;3.05;;
80584;SDS011;70137;56.482;9.154;2023-06-14T03:09:57;8.93;;;3.47;;
80584;SDS011;70137;56.482;9.154;2023-06-14T03:12:23;7.03;;;3.08;;
80584;SDS011;70137;56.482;9.154;2023-06-14T03:14:48;9.70;;;3.20;;
80584;SDS011;70137;56.482;9.154;2023-06-14T03:17:15;6.20;;;3.03;;
80584;SDS011;70137;56.482;9.154;2023-06-14T03:19:42;6.43;;;3.13;;
80584;SDS011;70137;56.482;9.154;2023-06-14T03:22:07;8.85;;;3.55;;
80584;SDS011;70137;56.482;9.154;2023-06-14T03:24:33;6.07;;;3.20;;
80584;SDS011;70137;56.482;9.154;2023-06-14T03:27:01;4.90;;;3.50;;
80584;SDS011;70137;56.482;9.154;2023-06-14T03:29:27;5.05;;;3.25;;
80584;SDS011;70137;56.482;9.154;2023-06-14T03:31:56;6.35;;;3.42;;
80584;SDS011;70137;56.482;9.154;2023-06-14T03:34:28;5.78;;;3.60;;
80584;SDS011;70137;56.482;9.154;2023-06-14T03:36:53;10.02;;;3.80;;
80584;SDS011;70137;56.482;9.154;2023-06-14T03:39:19;5.22;;;3.33;;
80584;SDS011;70137;56.482;9.154;2023-06-14T03:41:45;3.85;;;3.05;;
80584;SDS011;70137;56.482;9.154;2023-06-14T03:44:10;5.13;;;2.88;;
80584;SDS011;70137;56.482;9.154;2023-06-14T03:46:36;7.43;;;3.13;;
80584;SDS011;70137;56.482;9.154;2023-06-14T03:49:01;3.85;;;2.90;;
80584;SDS011;70137;56.482;9.154;2023-06-14T03:51:27;5.43;;;2.85;;
80584;SDS011;70137;56.482;9.154;2023-06-14T03:53:53;8.07;;;3.47;;
80584;SDS011;70137;56.482;9.154;2023-06-14T03:56:20;4.35;;;3.35;;
80584;SDS011;70137;56.482;9.154;2023-06-14T03:58:45;4.05;;;3.00;;
80584;SDS011;70137;56.482;9.154;2023-06-14T04:01:10;4.63;;;2.97;;
80584;SDS011;70137;56.482;9.154;2023-06-14T04:03:37;5.35;;;3.05;;
80584;SDS011;70137;56.482;9.154;2023-06-14T04:06:03;6.68;;;2.85;;
80584;SDS011;70137;56.482;9.154;2023-06-14T04:08:29;6.28;;;2.88;;
80584;SDS011;70137;56.482;9.154;2023-06-14T04:10:55;6.10;;;3.08;;
80584;SDS011;70137;56.482;9.154;2023-06-14T04:13:20;8.65;;;3.22;;
80584;SDS011;70137;56.482;9.154;2023-06-14T04:15:45;6.95;;;3.30;;
80584;SDS011;70137;56.482;9.154;2023-06-14T04:18:11;7.63;;;3.70;;
80584;SDS011;70137;56.482;9.154;2023-06-14T04:20:36;6.35;;;3.63;;
80584;SDS011;70137;56.482;9.154;2023-06-14T04:23:11;7.07;;;4.18;;
80584;SDS011;70137;56.482;9.154;2023-06-14T04:25:42;5.70;;;3.42;;
80584;SDS011;70137;56.482;9.154;2023-06-14T04:28:10;7.53;;;4.00;;
80584;SDS011;70137;56.482;9.154;2023-06-14T04:30:36;3.97;;;3.58;;
80584;SDS011;70137;56.482;9.154;2023-06-14T04:33:03;7.20;;;3.80;;
80584;SDS011;70137;56.482;9.154;2023-06-14T04:35:30;4.32;;;3.63;;
80584;SDS011;70137;56.482;9.154;2023-06-14T04:37:57;5.32;;;3.47;;
80584;SDS011;70137;56.482;9.154;2023-06-14T04:40:23;5.68;;;3.50;;
80584;SDS011;70137;56.482;9.154;2023-06-14T04:42:49;4.90;;;2.97;;
80584;SDS011;70137;56.482;9.154;2023-06-14T04:45:15;6.68;;;4.05;;
80584;SDS011;70137;56.482;9.154;2023-06-14T04:47:41;5.03;;;3.45;;
80584;SDS011;70137;56.482;9.154;2023-06-14T04:50:09;5.60;;;3.92;;
80584;SDS011;70137;56.482;9.154;2023-06-14T04:52:35;7.13;;;3.80;;
80584;SDS011;70137;56.482;9.154;2023-06-14T04:55:02;6.95;;;3.90;;
80584;SDS011;70137;56.482;9.154;2023-06-14T04:57:27;4.35;;;3.35;;
80584;SDS011;70137;56.482;9.154;2023-06-14T04:59:53;5.93;;;3.53;;
80584;SDS011;70137;56.482;9.154;2023-06-14T05:02:20;6.45;;;3.38;;
80584;SDS011;70137;56.482;9.154;2023-06-14T05:04:46;6.30;;;3.70;;
80584;SDS011;70137;56.482;9.154;2023-06-14T05:07:12;5.72;;;3.13;;
80584;SDS011;70137;56.482;9.154;2023-06-14T05:09:39;4.55;;;3.53;;
80584;SDS011;70137;56.482;9.154;2023-06-14T05:12:04;5.00;;;3.50;;
80584;SDS011;70137;56.482;9.154;2023-06-14T05:14:32;6.60;;;3.33;;
80584;SDS011;70137;56.482;9.154;2023-06-14T05:16:58;4.68;;;3.72;;
80584;SDS011;70137;56.482;9.154;2023-06-14T05:19:23;6.22;;;3.45;;
80584;SDS011;70137;56.482;9.154;2023-06-14T05:21:48;7.65;;;3.70;;
80584;SDS011;70137;56.482;9.154;2023-06-14T05:24:14;3.92;;;3.30;;
80584;SDS011;70137;56.482;9.154;2023-06-14T05:26:39;6.57;;;3.95;;
80584;SDS011;70137;56.482;9.154;2023-06-14T05:29:05;5.25;;;3.25;;
80584;SDS011;70137;56.482;9.154;2023-06-14T05:31:31;5.93;;;4.40;;
80584;SDS011;70137;56.482;9.154;2023-06-14T05:33:56;6.03;;;4.07;;
80584;SDS011;70137;56.482;9.154;2023-06-14T05:36:22;6.22;;;3.88;;
80584;SDS011;70137;56.482;9.154;2023-06-14T05:38:47;4.45;;;3.70;;
80584;SDS011;70137;56.482;9.154;2023-06-14T05:41:13;6.63;;;4.00;;
80584;SDS011;70137;56.482;9.154;2023-06-14T05:43:38;7.95;;;3.72;;
80584;SDS011;70137;56.482;9.154;2023-06-14T05:46:03;6.68;;;3.88;;
80584;SDS011;70137;56.482;9.154;2023-06-14T05:48:30;5.22;;;3.13;;
80584;SDS011;70137;56.482;9.154;2023-06-14T05:50:56;5.75;;;3.70;;
80584;SDS011;70137;56.482;9.154;2023-06-14T05:53:21;4.80;;;3.20;;
80584;SDS011;70137;56.482;9.154;2023-06-14T05:55:46;5.40;;;3.00;;
80584;SDS011;70137;56.482;9.154;2023-06-14T05:58:11;6.22;;;3.38;;
80584;SDS011;70137;56.482;9.154;2023-06-14T06:00:38;5.47;;;3.10;;
80584;SDS011;70137;56.482;9.154;2023-06-14T06:03:04;11.25;;;3.65;;
80584;SDS011;70137;56.482;9.154;2023-06-14T06:05:29;6.10;;;3.20;;
80584;SDS011;70137;56.482;9.154;2023-06-14T06:07:55;7.00;;;2.72;;
80584;SDS011;70137;56.482;9.154;2023-06-14T06:10:20;12.27;;;4.20;;
80584;SDS011;70137;56.482;9.154;2023-06-14T06:12:46;8.93;;;3.78;;
80584;SDS011;70137;56.482;9.154;2023-06-14T06:15:13;11.45;;;3.72;;
80584;SDS011;70137;56.482;9.154;2023-06-14T06:17:39;10.40;;;3.97;;
80584;SDS011;70137;56.482;9.154;2023-06-14T06:20:05;7.97;;;3.97;;
80584;SDS011;70137;56.482;9.154;2023-06-14T06:22:33;10.00;;;3.70;;
80584;SDS011;70137;56.482;9.154;2023-06-14T06:24:59;7.95;;;3.40;;
80584;SDS011;70137;56.482;9.154;2023-06-14T06:27:24;6.78;;;3.53;;
80584;SDS011;70137;56.482;9.154;2023-06-14T06:29:49;7.78;;;3.20;;
80584;SDS011;70137;56.482;9.154;2023-06-14T06:32:16;5.45;;;2.97;;
80584;SDS011;70137;56.482;9.154;2023-06-14T06:34:42;7.75;;;3.22;;
80584;SDS011;70137;56.482;9.154;2023-06-14T06:37:07;8.93;;;3.10;;
80584;SDS011;70137;56.482;9.154;2023-06-14T06:39:32;4.10;;;2.75;;
80584;SDS011;70137;56.482;9.154;2023-06-14T06:41:58;6.35;;;3.10;;
80584;SDS011;70137;56.482;9.154;2023-06-14T06:44:23;7.38;;;2.90;;
80584;SDS011;70137;56.482;9.154;2023-06-14T06:46:48;7.82;;;2.40;;
80584;SDS011;70137;56.482;9.154;2023-06-14T06:49:14;6.65;;;2.65;;
80584;SDS011;70137;56.482;9.154;2023-06-14T06:51:42;6.78;;;2.60;;
80584;SDS011;70137;56.482;9.154;2023-06-14T06:54:08;4.40;;;2.30;;
80584;SDS011;70137;56.482;9.154;2023-06-14T06:56:34;9.77;;;2.60;;
80584;SDS011;70137;56.482;9.154;2023-06-14T06:59:00;4.60;;;2.30;;
80584;SDS011;70137;56.482;9.154;2023-06-14T07:01:25;3.83;;;2.00;;
80584;SDS011;70137;56.482;9.154;2023-06-14T07:03:51;4.45;;;2.30;;
80584;SDS011;70137;56.482;9.154;2023-06-14T07:06:16;5.82;;;2.20;;
80584;SDS011;70137;56.482;9.154;2023-06-14T07:08:45;4.93;;;2.10;;
80584;SDS011;70137;56.482;9.154;2023-06-14T07:11:10;3.92;;;1.85;;
80584;SDS011;70137;56.482;9.154;2023-06-14T07:13:35;5.38;;;1.90;;
80584;SDS011;70137;56.482;9.154;2023-06-14T07:16:01;3.13;;;2.25;;
80584;SDS011;70137;56.482;9.154;2023-06-14T07:18:26;5.72;;;2.05;;
80584;SDS011;70137;56.482;9.154;2023-06-14T07:20:55;4.80;;;2.10;;
80584;SDS011;70137;56.482;9.154;2023-06-14T07:23:22;3.65;;;2.05;;
80584;SDS011;70137;56.482;9.154;2023-06-14T07:25:47;3.92;;;2.10;;
80584;SDS011;70137;56.482;9.154;2023-06-14T07:28:13;8.27;;;2.20;;
80584;SDS011;70137;56.482;9.154;2023-06-14T07:30:38;5.85;;;2.10;;
80584;SDS011;70137;56.482;9.154;2023-06-14T07:33:04;7.53;;;2.40;;
80584;SDS011;70137;56.482;9.154;2023-06-14T07:35:29;3.65;;;2.10;;
80584;SDS011;70137;56.482;9.154;2023-06-14T07:37:54;2.88;;;1.90;;
80584;SDS011;70137;56.482;9.154;2023-06-14T07:40:20;3.70;;;1.95;;
80584;SDS011;70137;56.482;9.154;2023-06-14T07:42:45;5.78;;;1.77;;
80584;SDS011;70137;56.482;9.154;2023-06-14T07:45:13;5.65;;;2.10;;
80584;SDS011;70137;56.482;9.154;2023-06-14T07:47:39;4.30;;;2.00;;
80584;SDS011;70137;56.482;9.154;2023-06-14T07:50:04;6.50;;;1.92;;
80584;SDS011;70137;56.482;9.154;2023-06-14T07:52:30;3.17;;;1.90;;
80584;SDS011;70137;56.482;9.154;2023-06-14T07:54:55;3.78;;;2.22;;
80584;SDS011;70137;56.482;9.154;2023-06-14T07:57:21;4.78;;;2.00;;
80584;SDS011;70137;56.482;9.154;2023-06-14T07:59:47;3.38;;;2.28;;
80584;SDS011;70137;56.482;9.154;2023-06-14T08:02:12;2.50;;;2.08;;
80584;SDS011;70137;56.482;9.154;2023-06-14T08:04:38;3.97;;;1.83;;
80584;SDS011;70137;56.482;9.154;2023-06-14T08:07:03;3.40;;;1.90;;
80584;SDS011;70137;56.482;9.154;2023-06-14T08:09:29;4.28;;;2.35;;
80584;SDS011;70137;56.482;9.154;2023-06-14T08:11:55;6.50;;;2.08;;
80584;SDS011;70137;56.482;9.154;2023-06-14T08:14:20;3.35;;;2.10;;
80584;SDS011;70137;56.482;9.154;2023-06-14T08:16:46;3.33;;;2.10;;
80584;SDS011;70137;56.482;9.154;2023-06-14T08:19:11;5.97;;;2.20;;
80584;SDS011;70137;56.482;9.154;2023-06-14T08:21:37;3.53;;;2.20;;
80584;SDS011;70137;56.482;9.154;2023-06-14T08:24:05;4.40;;;1.90;;
80584;SDS011;70137;56.482;9.154;2023-06-14T08:26:30;2.40;;;2.10;;
80584;SDS011;70137;56.482;9.154;2023-06-14T08:28:56;3.53;;;2.10;;
80584;SDS011;70137;56.482;9.154;2023-06-14T08:31:22;4.38;;;2.20;;
80584;SDS011;70137;56.482;9.154;2023-06-14T08:33:49;4.15;;;2.00;;
80584;SDS011;70137;56.482;9.154;2023-06-14T08:36:14;3.22;;;1.65;;
80584;SDS011;70137;56.482;9.154;2023-06-14T08:38:40;6.00;;;2.33;;
80584;SDS011;70137;56.482;9.154;2023-06-14T08:41:05;3.65;;;2.28;;
80584;SDS011;70137;56.482;9.154;2023-06-14T08:43:31;6.63;;;2.10;;
80584;SDS011;70137;56.482;9.154;2023-06-14T08:46:00;3.55;;;1.83;;
80584;SDS011;70137;56.482;9.154;2023-06-14T08:48:28;3.92;;;2.13;;
80584;SDS011;70137;56.482;9.154;2023-06-14T08:50:56;3.35;;;2.30;;
80584;SDS011;70137;56.482;9.154;2023-06-14T08:53:32;8.32;;;1.98;;
80584;SDS011;70137;56.482;9.154;2023-06-14T08:56:01;3.22;;;2.00;;
80584;SDS011;70137;56.482;9.154;2023-06-14T08:58:29;4.65;;;2.10;;
80584;SDS011;70137;56.482;9.154;2023-06-14T09:00:56;5.07;;;2.20;;
80584;SDS011;70137;56.482;9.154;2023-06-14T09:03:22;3.05;;;2.35;;
80584;SDS011;70137;56.482;9.154;2023-06-14T09:05:54;4.53;;;2.17;;
80584;SDS011;70137;56.482;9.154;2023-06-14T09:08:20;2.45;;;1.90;;
80584;SDS011;70137;56.482;9.154;2023-06-14T09:10:47;4.07;;;1.98;;
80584;SDS011;70137;56.482;9.154;2023-06-14T09:13:12;3.70;;;1.90;;
80584;SDS011;70137;56.482;9.154;2023-06-14T09:15:37;4.25;;;2.30;;
80584;SDS011;70137;56.482;9.154;2023-06-14T09:18:03;4.15;;;1.75;;
80584;SDS011;70137;56.482;9.154;2023-06-14T09:20:29;3.72;;;1.98;;
80584;SDS011;70137;56.482;9.154;2023-06-14T09:22:55;2.42;;;2.00;;
80584;SDS011;70137;56.482;9.154;2023-06-14T09:25:20;3.53;;;1.80;;
80584;SDS011;70137;56.482;9.154;2023-06-14T09:27:46;3.13;;;1.95;;
80584;SDS011;70137;56.482;9.154;2023-06-14T09:30:12;3.63;;;1.90;;
80584;SDS011;70137;56.482;9.154;2023-06-14T09:32:38;3.55;;;2.30;;
80584;SDS011;70137;56.482;9.154;2023-06-14T09:35:08;4.15;;;2.00;;
80584;SDS011;70137;56.482;9.154;2023-06-14T09:37:34;5.13;;;2.15;;
80584;SDS011;70137;56.482;9.154;2023-06-14T09:40:00;5.50;;;1.90;;
80584;SDS011;70137;56.482;9.154;2023-06-14T09:42:25;2.10;;;1.73;;
80584;SDS011;70137;56.482;9.154;2023-06-14T09:44:51;2.55;;;1.95;;
80584;SDS011;70137;56.482;9.154;2023-06-14T09:47:18;5.75;;;2.30;;
80584;SDS011;70137;56.482;9.154;2023-06-14T09:49:44;4.10;;;2.30;;
80584;SDS011;70137;56.482;9.154;2023-06-14T09:52:10;3.35;;;2.10;;
80584;SDS011;70137;56.482;9.154;2023-06-14T09:54:40;4.82;;;2.20;;
80584;SDS011;70137;56.482;9.154;2023-06-14T09:57:15;5.88;;;2.08;;
80584;SDS011;70137;56.482;9.154;2023-06-14T09:59:45;3.33;;;1.90;;
80584;SDS011;70137;56.482;9.154;2023-06-14T10:05:07;3.72;;;1.98;;
80584;SDS011;70137;56.482;9.154;2023-06-14T10:07:41;4.72;;;2.30;;
80584;SDS011;70137;56.482;9.154;2023-06-14T10:10:09;3.63;;;2.10;;
80584;SDS011;70137;56.482;9.154;2023-06-14T10:12:35;5.72;;;2.20;;
80584;SDS011;70137;56.482;9.154;2023-06-14T10:15:01;5.72;;;2.58;;
80584;SDS011;70137;56.482;9.154;2023-06-14T10:22:50;5.55;;;2.42;;
80584;SDS011;70137;56.482;9.154;2023-06-14T10:25:29;3.85;;;2.30;;
80584;SDS011;70137;56.482;9.154;2023-06-14T10:28:02;7.28;;;2.28;;
80584;SDS011;70137;56.482;9.154;2023-06-14T10:30:28;3.95;;;2.10;;
80584;SDS011;70137;56.482;9.154;2023-06-14T10:33:03;3.10;;;2.15;;
80584;SDS011;70137;56.482;9.154;2023-06-14T10:35:32;3.55;;;2.20;;
80584;SDS011;70137;56.482;9.154;2023-06-14T10:38:07;2.90;;;2.20;;
80584;SDS011;70137;56.482;9.154;2023-06-14T10:40:34;3.72;;;2.00;;
80584;SDS011;70137;56.482;9.154;2023-06-14T10:42:59;4.38;;;2.33;;
80584;SDS011;70137;56.482;9.154;2023-06-14T10:45:25;8.98;;;2.40;;
80584;SDS011;70137;56.482;9.154;2023-06-14T10:47:50;3.63;;;2.20;;
80584;SDS011;70137;56.482;9.154;2023-06-14T10:50:17;5.43;;;2.25;;
80584;SDS011;70137;56.482;9.154;2023-06-14T10:52:53;6.38;;;2.17;;
80584;SDS011;70137;56.482;9.154;2023-06-14T10:55:18;3.63;;;2.28;;
80584;SDS011;70137;56.482;9.154;2023-06-14T10:57:50;5.70;;;2.30;;
80584;SDS011;70137;56.482;9.154;2023-06-14T11:00:17;4.75;;;2.50;;
80584;SDS011;70137;56.482;9.154;2023-06-14T11:02:51;5.15;;;2.42;;
80584;SDS011;70137;56.482;9.154;2023-06-14T11:05:29;5.68;;;2.40;;
80584;SDS011;70137;56.482;9.154;2023-06-14T11:10:43;3.85;;;2.40;;
80584;SDS011;70137;56.482;9.154;2023-06-14T11:13:10;3.92;;;2.58;;
80584;SDS011;70137;56.482;9.154;2023-06-14T11:15:36;3.90;;;2.42;;
80584;SDS011;70137;56.482;9.154;2023-06-14T11:18:02;5.95;;;2.35;;
80584;SDS011;70137;56.482;9.154;2023-06-14T11:20:30;2.70;;;2.45;;
80584;SDS011;70137;56.482;9.154;2023-06-14T11:22:56;3.83;;;2.17;;
80584;SDS011;70137;56.482;9.154;2023-06-14T11:25:22;6.25;;;2.25;;
80584;SDS011;70137;56.482;9.154;2023-06-14T11:27:51;3.63;;;2.15;;
80584;SDS011;70137;56.482;9.154;2023-06-14T11:30:17;6.05;;;2.65;;
80584;SDS011;70137;56.482;9.154;2023-06-14T11:32:45;4.53;;;2.25;;
80584;SDS011;70137;56.482;9.154;2023-06-14T11:35:13;2.30;;;2.10;;
80584;SDS011;70137;56.482;9.154;2023-06-14T11:37:39;4.07;;;2.30;;
80584;SDS011;70137;56.482;9.154;2023-06-14T11:40:07;2.72;;;2.00;;
80584;SDS011;70137;56.482;9.154;2023-06-14T11:42:34;4.28;;;2.28;;
80584;SDS011;70137;56.482;9.154;2023-06-14T11:45:00;5.13;;;2.28;;
80584;SDS011;70137;56.482;9.154;2023-06-14T11:47:33;4.03;;;2.30;;
80584;SDS011;70137;56.482;9.154;2023-06-14T11:52:28;2.92;;;2.25;;
80584;SDS011;70137;56.482;9.154;2023-06-14T11:54:53;7.18;;;2.50;;
80584;SDS011;70137;56.482;9.154;2023-06-14T11:57:19;6.68;;;2.10;;
80584;SDS011;70137;56.482;9.154;2023-06-14T11:59:46;2.90;;;2.25;;
80584;SDS011;70137;56.482;9.154;2023-06-14T12:02:15;2.58;;;2.20;;
80584;SDS011;70137;56.482;9.154;2023-06-14T12:04:42;3.60;;;2.30;;
80584;SDS011;70137;56.482;9.154;2023-06-14T12:09:40;2.58;;;2.08;;
80584;SDS011;70137;56.482;9.154;2023-06-14T12:12:08;6.50;;;2.30;;
80584;SDS011;70137;56.482;9.154;2023-06-14T12:14:35;6.05;;;2.60;;
80584;SDS011;70137;56.482;9.154;2023-06-14T12:17:04;3.00;;;2.22;;
80584;SDS011;70137;56.482;9.154;2023-06-14T12:19:31;4.93;;;2.40;;
80584;SDS011;70137;56.482;9.154;2023-06-14T12:21:58;3.17;;;2.30;;
80584;SDS011;70137;56.482;9.154;2023-06-14T12:24:29;5.47;;;2.60;;
80584;SDS011;70137;56.482;9.154;2023-06-14T12:26:56;7.72;;;2.35;;
80584;SDS011;70137;56.482;9.154;2023-06-14T12:29:24;3.55;;;2.20;;
80584;SDS011;70137;56.482;9.154;2023-06-14T12:31:50;2.38;;;2.17;;
80584;SDS011;70137;56.482;9.154;2023-06-14T12:34:15;4.88;;;2.70;;
80584;SDS011;70137;56.482;9.154;2023-06-14T12:36:41;3.40;;;2.40;;
80584;SDS011;70137;56.482;9.154;2023-06-14T12:39:09;6.88;;;2.40;;
80584;SDS011;70137;56.482;9.154;2023-06-14T12:41:34;4.38;;;2.30;;
80584;SDS011;70137;56.482;9.154;2023-06-14T12:44:01;4.70;;;2.38;;
80584;SDS011;70137;56.482;9.154;2023-06-14T12:46:29;3.33;;;2.45;;
80584;SDS011;70137;56.482;9.154;2023-06-14T12:48:56;5.07;;;2.30;;
80584;SDS011;70137;56.482;9.154;2023-06-14T12:51:21;3.05;;;2.05;;
80584;SDS011;70137;56.482;9.154;2023-06-14T12:53:47;4.13;;;2.35;;
80584;SDS011;70137;56.482;9.154;2023-06-14T12:56:14;5.43;;;2.45;;
80584;SDS011;70137;56.482;9.154;2023-06-14T12:58:40;4.53;;;2.58;;
80584;SDS011;70137;56.482;9.154;2023-06-14T13:01:06;3.40;;;2.20;;
80584;SDS011;70137;56.482;9.154;2023-06-14T13:03:31;5.78;;;2.70;;
80584;SDS011;70137;56.482;9.154;2023-06-14T13:05:58;6.38;;;2.70;;
80584;SDS011;70137;56.482;9.154;2023-06-14T13:08:24;3.15;;;2.30;;
80584;SDS011;70137;56.482;9.154;2023-06-14T13:10:49;3.05;;;2.13;;
80584;SDS011;70137;56.482;9.154;2023-06-14T13:13:14;4.35;;;2.58;;
80584;SDS011;70137;56.482;9.154;2023-06-14T13:15:40;5.10;;;2.70;;
80584;SDS011;70137;56.482;9.154;2023-06-14T13:18:05;3.30;;;2.50;;
80584;SDS011;70137;56.482;9.154;2023-06-14T13:20:30;2.65;;;2.17;;
80584;SDS011;70137;56.482;9.154;2023-06-14T13:22:56;10.32;;;2.10;;
80584;SDS011;70137;56.482;9.154;2023-06-14T13:25:22;4.32;;;2.10;;
80584;SDS011;70137;56.482;9.154;2023-06-14T13:27:47;3.05;;;2.15;;
80584;SDS011;70137;56.482;9.154;2023-06-14T13:30:13;3.20;;;2.40;;
80584;SDS011;70137;56.482;9.154;2023-06-14T13:32:38;6.53;;;2.30;;
80584;SDS011;70137;56.482;9.154;2023-06-14T13:35:04;5.55;;;2.35;;
80584;SDS011;70137;56.482;9.154;2023-06-14T13:37:29;3.70;;;2.40;;
80584;SDS011;70137;56.482;9.154;2023-06-14T13:39:55;5.38;;;2.60;;
80584;SDS011;70137;56.482;9.154;2023-06-14T13:42:20;4.55;;;2.55;;
80584;SDS011;70137;56.482;9.154;2023-06-14T13:44:45;6.43;;;2.03;;
80584;SDS011;70137;56.482;9.154;2023-06-14T13:47:11;5.10;;;2.38;;
80584;SDS011;70137;56.482;9.154;2023-06-14T13:49:37;6.78;;;2.30;;
80584;SDS011;70137;56.482;9.154;2023-06-14T13:52:02;3.95;;;2.60;;
80584;SDS011;70137;56.482;9.154;2023-06-14T13:54:28;4.85;;;2.40;;
80584;SDS011;70137;56.482;9.154;2023-06-14T13:56:53;4.28;;;2.17;;
80584;SDS011;70137;56.482;9.154;2023-06-14T13:59:19;3.20;;;2.38;;
80584;SDS011;70137;56.482;9.154;2023-06-14T14:01:45;2.85;;;1.92;;
80584;SDS011;70137;56.482;9.154;2023-06-14T14:04:10;2.80;;;2.20;;
80584;SDS011;70137;56.482;9.154;2023-06-14T14:06:36;4.72;;;2.40;;
80584;SDS011;70137;56.482;9.154;2023-06-14T14:09:01;7.35;;;2.60;;
80584;SDS011;70137;56.482;9.154;2023-06-14T14:11:26;3.58;;;2.03;;
80584;SDS011;70137;56.482;9.154;2023-06-14T14:13:53;3.50;;;2.40;;
80584;SDS011;70137;56.482;9.154;2023-06-14T14:16:18;5.35;;;2.08;;
80584;SDS011;70137;56.482;9.154;2023-06-14T14:18:45;3.58;;;2.55;;
80584;SDS011;70137;56.482;9.154;2023-06-14T14:21:11;3.40;;;2.33;;
80584;SDS011;70137;56.482;9.154;2023-06-14T14:23:36;5.63;;;2.35;;
80584;SDS011;70137;56.482;9.154;2023-06-14T14:26:01;11.85;;;2.10;;
80584;SDS011;70137;56.482;9.154;2023-06-14T14:28:29;3.83;;;2.10;;
80584;SDS011;70137;56.482;9.154;2023-06-14T14:30:55;9.23;;;2.30;;
80584;SDS011;70137;56.482;9.154;2023-06-14T14:33:20;4.50;;;2.30;;
80584;SDS011;70137;56.482;9.154;2023-06-14T14:35:45;3.53;;;2.15;;
80584;SDS011;70137;56.482;9.154;2023-06-14T14:38:11;6.53;;;2.67;;
80584;SDS011;70137;56.482;9.154;2023-06-14T14:40:37;5.03;;;2.20;;
80584;SDS011;70137;56.482;9.154;2023-06-14T14:43:02;7.50;;;2.20;;
80584;SDS011;70137;56.482;9.154;2023-06-14T14:45:28;5.30;;;2.33;;
80584;SDS011;70137;56.482;9.154;2023-06-14T14:47:53;7.77;;;2.80;;
80584;SDS011;70137;56.482;9.154;2023-06-14T14:50:18;5.30;;;2.03;;
80584;SDS011;70137;56.482;9.154;2023-06-14T14:52:43;3.78;;;2.40;;
80584;SDS011;70137;56.482;9.154;2023-06-14T14:55:10;5.10;;;2.10;;
80584;SDS011;70137;56.482;9.154;2023-06-14T14:57:35;5.07;;;2.25;;
80584;SDS011;70137;56.482;9.154;2023-06-14T15:00:02;5.30;;;2.15;;
80584;SDS011;70137;56.482;9.154;2023-06-14T15:02:28;3.45;;;2.13;;
80584;SDS011;70137;56.482;9.154;2023-06-14T15:04:53;6.25;;;2.67;;
80584;SDS011;70137;56.482;9.154;2023-06-14T15:07:19;3.45;;;2.30;;
80584;SDS011;70137;56.482;9.154;2023-06-14T15:09:44;3.88;;;2.38;;
80584;SDS011;70137;56.482;9.154;2023-06-14T15:12:10;4.68;;;2.30;;
80584;SDS011;70137;56.482;9.154;2023-06-14T15:14:35;5.97;;;2.47;;
80584;SDS011;70137;56.482;9.154;2023-06-14T15:17:01;6.95;;;2.10;;
80584;SDS011;70137;56.482;9.154;2023-06-14T15:19:27;6.70;;;2.20;;
80584;SDS011;70137;56.482;9.154;2023-06-14T15:21:53;5.97;;;2.80;;
80584;SDS011;70137;56.482;9.154;2023-06-14T15:24:18;2.97;;;2.20;;
80584;SDS011;70137;56.482;9.154;2023-06-14T15:26:44;4.00;;;2.00;;
80584;SDS011;70137;56.482;9.154;2023-06-14T15:29:10;3.47;;;2.22;;
80584;SDS011;70137;56.482;9.154;2023-06-14T15:31:35;6.18;;;2.60;;
80584;SDS011;70137;56.482;9.154;2023-06-14T15:34:00;5.13;;;2.30;;
80584;SDS011;70137;56.482;9.154;2023-06-14T15:36:26;3.72;;;2.08;;
80584;SDS011;70137;56.482;9.154;2023-06-14T15:38:51;5.40;;;2.53;;
80584;SDS011;70137;56.482;9.154;2023-06-14T15:41:17;3.85;;;1.95;;